sensor_id;sensor_type;location;lat;lon;timestamp;P1;durP1;ratioP1;P2;durP2;ratioP2
739;SDS011;354;42.694;23.336;2024-02-23T00:00:12;15.83;;;13.30;;
739;SDS011;354;42.694;23.336;2024-02-23T00:02:38;14.93;;;12.37;;
739;SDS011;354;42.694;23.336;2024-02-23T00:05:03;12.23;;;10.70;;
739;SDS011;354;42.694;23.336;2024-02-23T00:07:29;11.27;;;10.17;;
739;SDS011;354;42.694;23.336;2024-02-23T00:09:55;17.20;;;12.13;;
739;SDS011;354;42.694;23.336;2024-02-23T00:12:20;12.80;;;11.40;;
739;SDS011;354;42.694;23.336;2024-02-23T00:14:45;13.67;;;12.37;;
739;SDS011;354;42.694;23.336;2024-02-23T00:17:11;12.50;;;11.20;;
739;SDS011;354;42.694;23.336;2024-02-23T00:19:36;13.30;;;11.10;;
739;SDS011;354;42.694;23.336;2024-02-23T00:22:02;10.93;;;9.60;;
739;SDS011;354;42.694;23.336;2024-02-23T00:24:28;12.40;;;11.10;;
739;SDS011;354;42.694;23.336;2024-02-23T00:26:54;11.03;;;9.50;;
739;SDS011;354;42.694;23.336;2024-02-23T00:29:19;10.90;;;9.90;;
739;SDS011;354;42.694;23.336;2024-02-23T00:31:46;10.97;;;9.97;;
739;SDS011;354;42.694;23.336;2024-02-23T00:34:11;12.20;;;11.00;;
739;SDS011;354;42.694;23.336;2024-02-23T00:36:38;11.97;;;10.67;;
739;SDS011;354;42.694;23.336;2024-02-23T00:39:05;13.40;;;11.57;;
739;SDS011;354;42.694;23.336;2024-02-23T00:41:32;13.80;;;11.10;;
739;SDS011;354;42.694;23.336;2024-02-23T00:43:58;12.83;;;11.53;;
739;SDS011;354;42.694;23.336;2024-02-23T00:46:23;13.73;;;11.30;;
739;SDS011;354;42.694;23.336;2024-02-23T00:48:48;13.90;;;11.00;;
739;SDS011;354;42.694;23.336;2024-02-23T00:51:14;13.00;;;10.53;;
739;SDS011;354;42.694;23.336;2024-02-23T00:53:39;11.50;;;10.30;;
739;SDS011;354;42.694;23.336;2024-02-23T00:56:05;12.53;;;11.07;;
739;SDS011;354;42.694;23.336;2024-02-23T00:58:30;12.63;;;11.27;;
739;SDS011;354;42.694;23.336;2024-02-23T01:00:56;14.93;;;11.97;;
739;SDS011;354;42.694;23.336;2024-02-23T01:03:21;12.70;;;11.43;;
739;SDS011;354;42.694;23.336;2024-02-23T01:05:47;12.40;;;11.10;;
739;SDS011;354;42.694;23.336;2024-02-23T01:08:13;12.33;;;10.13;;
739;SDS011;354;42.694;23.336;2024-02-23T01:10:38;10.80;;;9.70;;
739;SDS011;354;42.694;23.336;2024-02-23T01:13:03;12.43;;;11.20;;
739;SDS011;354;42.694;23.336;2024-02-23T01:15:30;12.80;;;11.60;;
739;SDS011;354;42.694;23.336;2024-02-23T01:17:56;12.80;;;11.57;;
739;SDS011;354;42.694;23.336;2024-02-23T01:20:21;14.03;;;12.20;;
739;SDS011;354;42.694;23.336;2024-02-23T01:22:47;11.90;;;10.63;;
739;SDS011;354;42.694;23.336;2024-02-23T01:25:12;13.60;;;10.77;;
739;SDS011;354;42.694;23.336;2024-02-23T01:27:40;13.63;;;12.23;;
739;SDS011;354;42.694;23.336;2024-02-23T01:30:06;13.50;;;12.10;;
739;SDS011;354;42.694;23.336;2024-02-23T01:32:32;14.83;;;11.57;;
739;SDS011;354;42.694;23.336;2024-02-23T01:34:57;11.73;;;10.53;;
739;SDS011;354;42.694;23.336;2024-02-23T01:37:23;11.90;;;10.70;;
739;SDS011;354;42.694;23.336;2024-02-23T01:39:48;13.30;;;11.07;;
739;SDS011;354;42.694;23.336;2024-02-23T01:42:13;12.57;;;11.13;;
739;SDS011;354;42.694;23.336;2024-02-23T01:44:39;12.87;;;11.00;;
739;SDS011;354;42.694;23.336;2024-02-23T01:47:04;12.03;;;10.80;;
739;SDS011;354;42.694;23.336;2024-02-23T01:49:30;12.83;;;10.87;;
739;SDS011;354;42.694;23.336;2024-02-23T01:52:01;11.90;;;10.60;;
739;SDS011;354;42.694;23.336;2024-02-23T01:54:27;12.57;;;11.33;;
739;SDS011;354;42.694;23.336;2024-02-23T01:56:54;13.03;;;11.63;;
739;SDS011;354;42.694;23.336;2024-02-23T01:59:21;10.97;;;9.90;;
739;SDS011;354;42.694;23.336;2024-02-23T02:01:48;14.37;;;12.40;;
739;SDS011;354;42.694;23.336;2024-02-23T02:04:13;11.30;;;10.10;;
739;SDS011;354;42.694;23.336;2024-02-23T02:06:39;13.57;;;11.10;;
739;SDS011;354;42.694;23.336;2024-02-23T02:09:04;12.50;;;10.90;;
739;SDS011;354;42.694;23.336;2024-02-23T02:11:30;13.27;;;11.97;;
739;SDS011;354;42.694;23.336;2024-02-23T02:13:56;12.97;;;10.83;;
739;SDS011;354;42.694;23.336;2024-02-23T02:16:21;15.23;;;11.17;;
739;SDS011;354;42.694;23.336;2024-02-23T02:18:46;12.47;;;11.30;;
739;SDS011;354;42.694;23.336;2024-02-23T02:21:12;13.27;;;11.77;;
739;SDS011;354;42.694;23.336;2024-02-23T02:23:37;12.20;;;10.87;;
739;SDS011;354;42.694;23.336;2024-02-23T02:26:03;11.20;;;10.10;;
739;SDS011;354;42.694;23.336;2024-02-23T02:28:29;11.60;;;10.40;;
739;SDS011;354;42.694;23.336;2024-02-23T02:30:55;11.43;;;10.33;;
739;SDS011;354;42.694;23.336;2024-02-23T02:33:21;11.03;;;9.93;;
739;SDS011;354;42.694;23.336;2024-02-23T02:35:47;12.37;;;10.20;;
739;SDS011;354;42.694;23.336;2024-02-23T02:38:13;12.37;;;10.97;;
739;SDS011;354;42.694;23.336;2024-02-23T02:40:38;11.77;;;10.10;;
739;SDS011;354;42.694;23.336;2024-02-23T02:43:04;12.30;;;11.10;;
739;SDS011;354;42.694;23.336;2024-02-23T02:45:29;14.50;;;11.97;;
739;SDS011;354;42.694;23.336;2024-02-23T02:47:55;12.03;;;10.47;;
739;SDS011;354;42.694;23.336;2024-02-23T02:50:21;12.67;;;11.20;;
739;SDS011;354;42.694;23.336;2024-02-23T02:52:47;12.50;;;11.20;;
739;SDS011;354;42.694;23.336;2024-02-23T02:55:12;13.20;;;11.53;;
739;SDS011;354;42.694;23.336;2024-02-23T02:57:38;12.87;;;11.57;;
739;SDS011;354;42.694;23.336;2024-02-23T03:00:04;13.43;;;11.30;;
739;SDS011;354;42.694;23.336;2024-02-23T03:02:33;14.37;;;11.87;;
739;SDS011;354;42.694;23.336;2024-02-23T03:04:58;12.00;;;10.70;;
739;SDS011;354;42.694;23.336;2024-02-23T03:07:24;12.70;;;10.87;;
739;SDS011;354;42.694;23.336;2024-02-23T03:09:49;13.07;;;11.77;;
739;SDS011;354;42.694;23.336;2024-02-23T03:12:15;12.80;;;11.30;;
739;SDS011;354;42.694;23.336;2024-02-23T03:14:42;16.93;;;12.97;;
739;SDS011;354;42.694;23.336;2024-02-23T03:17:08;15.47;;;12.43;;
739;SDS011;354;42.694;23.336;2024-02-23T03:19:34;13.50;;;12.20;;
739;SDS011;354;42.694;23.336;2024-02-23T03:22:00;14.87;;;12.27;;
739;SDS011;354;42.694;23.336;2024-02-23T03:24:25;13.37;;;11.53;;
739;SDS011;354;42.694;23.336;2024-02-23T03:26:51;13.87;;;12.53;;
739;SDS011;354;42.694;23.336;2024-02-23T03:29:16;13.90;;;12.47;;
739;SDS011;354;42.694;23.336;2024-02-23T03:31:41;12.17;;;10.73;;
739;SDS011;354;42.694;23.336;2024-02-23T03:34:07;15.33;;;13.70;;
739;SDS011;354;42.694;23.336;2024-02-23T03:36:33;12.93;;;11.57;;
739;SDS011;354;42.694;23.336;2024-02-23T03:38:59;14.90;;;11.63;;
739;SDS011;354;42.694;23.336;2024-02-23T03:41:25;14.27;;;12.90;;
739;SDS011;354;42.694;23.336;2024-02-23T03:43:50;13.23;;;11.77;;
739;SDS011;354;42.694;23.336;2024-02-23T03:46:16;12.70;;;11.50;;
739;SDS011;354;42.694;23.336;2024-02-23T03:48:42;13.50;;;12.23;;
739;SDS011;354;42.694;23.336;2024-02-23T03:51:09;14.93;;;12.83;;
739;SDS011;354;42.694;23.336;2024-02-23T03:53:34;15.13;;;12.97;;
739;SDS011;354;42.694;23.336;2024-02-23T03:56:00;13.83;;;12.47;;
739;SDS011;354;42.694;23.336;2024-02-23T03:58:25;13.20;;;11.90;;
739;SDS011;354;42.694;23.336;2024-02-23T04:00:51;13.67;;;12.23;;
739;SDS011;354;42.694;23.336;2024-02-23T04:03:16;16.77;;;14.10;;
739;SDS011;354;42.694;23.336;2024-02-23T04:05:42;13.73;;;12.13;;
739;SDS011;354;42.694;23.336;2024-02-23T04:08:07;14.17;;;12.77;;
739;SDS011;354;42.694;23.336;2024-02-23T04:10:33;14.17;;;11.63;;
739;SDS011;354;42.694;23.336;2024-02-23T04:12:58;14.23;;;12.73;;
739;SDS011;354;42.694;23.336;2024-02-23T04:15:24;15.67;;;14.03;;
739;SDS011;354;42.694;23.336;2024-02-23T04:17:50;13.43;;;11.90;;
739;SDS011;354;42.694;23.336;2024-02-23T04:20:15;14.73;;;13.23;;
739;SDS011;354;42.694;23.336;2024-02-23T04:22:40;13.87;;;12.40;;
739;SDS011;354;42.694;23.336;2024-02-23T04:25:06;15.17;;;13.67;;
739;SDS011;354;42.694;23.336;2024-02-23T04:27:31;15.90;;;14.33;;
739;SDS011;354;42.694;23.336;2024-02-23T04:29:57;14.57;;;13.07;;
739;SDS011;354;42.694;23.336;2024-02-23T04:32:22;14.00;;;12.33;;
739;SDS011;354;42.694;23.336;2024-02-23T04:34:48;15.20;;;13.70;;
739;SDS011;354;42.694;23.336;2024-02-23T04:37:14;17.03;;;13.63;;
739;SDS011;354;42.694;23.336;2024-02-23T04:39:39;14.87;;;13.27;;
739;SDS011;354;42.694;23.336;2024-02-23T04:42:06;16.00;;;14.50;;
739;SDS011;354;42.694;23.336;2024-02-23T04:44:33;15.77;;;14.13;;
739;SDS011;354;42.694;23.336;2024-02-23T04:46:59;14.60;;;13.03;;
739;SDS011;354;42.694;23.336;2024-02-23T04:49:25;14.97;;;13.30;;
739;SDS011;354;42.694;23.336;2024-02-23T04:51:50;16.40;;;14.10;;
739;SDS011;354;42.694;23.336;2024-02-23T04:54:16;16.17;;;13.83;;
739;SDS011;354;42.694;23.336;2024-02-23T04:56:41;16.40;;;14.03;;
739;SDS011;354;42.694;23.336;2024-02-23T04:59:06;16.13;;;14.43;;
739;SDS011;354;42.694;23.336;2024-02-23T05:01:38;16.13;;;13.67;;
739;SDS011;354;42.694;23.336;2024-02-23T05:04:04;14.73;;;12.90;;
739;SDS011;354;42.694;23.336;2024-02-23T05:06:29;16.50;;;14.83;;
739;SDS011;354;42.694;23.336;2024-02-23T05:08:55;15.60;;;13.43;;
739;SDS011;354;42.694;23.336;2024-02-23T05:11:21;18.73;;;16.07;;
739;SDS011;354;42.694;23.336;2024-02-23T05:13:47;17.33;;;15.70;;
739;SDS011;354;42.694;23.336;2024-02-23T05:16:15;16.87;;;15.10;;
739;SDS011;354;42.694;23.336;2024-02-23T05:18:41;16.90;;;15.07;;
739;SDS011;354;42.694;23.336;2024-02-23T05:21:07;20.57;;;17.03;;
739;SDS011;354;42.694;23.336;2024-02-23T05:23:32;17.70;;;15.03;;
739;SDS011;354;42.694;23.336;2024-02-23T05:25:58;20.07;;;17.53;;
739;SDS011;354;42.694;23.336;2024-02-23T05:28:23;17.10;;;15.33;;
739;SDS011;354;42.694;23.336;2024-02-23T05:30:49;17.43;;;15.77;;
739;SDS011;354;42.694;23.336;2024-02-23T05:33:14;16.83;;;15.07;;
739;SDS011;354;42.694;23.336;2024-02-23T05:35:39;17.43;;;15.03;;
739;SDS011;354;42.694;23.336;2024-02-23T05:38:05;19.53;;;16.77;;
739;SDS011;354;42.694;23.336;2024-02-23T05:40:31;24.23;;;14.40;;
739;SDS011;354;42.694;23.336;2024-02-23T05:42:58;16.87;;;14.57;;
739;SDS011;354;42.694;23.336;2024-02-23T05:45:24;58.47;;;41.83;;
739;SDS011;354;42.694;23.336;2024-02-23T05:47:49;22.57;;;19.03;;
739;SDS011;354;42.694;23.336;2024-02-23T05:50:15;17.83;;;16.03;;
739;SDS011;354;42.694;23.336;2024-02-23T05:52:40;17.63;;;15.87;;
739;SDS011;354;42.694;23.336;2024-02-23T05:55:06;28.90;;;17.80;;
739;SDS011;354;42.694;23.336;2024-02-23T05:57:32;26.00;;;19.27;;
739;SDS011;354;42.694;23.336;2024-02-23T05:59:58;17.83;;;16.03;;
739;SDS011;354;42.694;23.336;2024-02-23T06:02:23;19.30;;;17.20;;
739;SDS011;354;42.694;23.336;2024-02-23T06:04:49;18.50;;;15.87;;
739;SDS011;354;42.694;23.336;2024-02-23T06:07:14;24.10;;;21.37;;
739;SDS011;354;42.694;23.336;2024-02-23T06:09:43;18.87;;;16.47;;
739;SDS011;354;42.694;23.336;2024-02-23T06:12:08;18.93;;;16.23;;
739;SDS011;354;42.694;23.336;2024-02-23T06:14:34;26.53;;;17.57;;
739;SDS011;354;42.694;23.336;2024-02-23T06:17:00;21.77;;;17.87;;
739;SDS011;354;42.694;23.336;2024-02-23T06:19:26;21.10;;;18.90;;
739;SDS011;354;42.694;23.336;2024-02-23T06:21:51;18.27;;;16.17;;
739;SDS011;354;42.694;23.336;2024-02-23T06:24:16;16.57;;;14.47;;
739;SDS011;354;42.694;23.336;2024-02-23T06:26:42;16.87;;;15.07;;
739;SDS011;354;42.694;23.336;2024-02-23T06:29:08;23.60;;;15.63;;
739;SDS011;354;42.694;23.336;2024-02-23T06:31:36;19.20;;;17.13;;
739;SDS011;354;42.694;23.336;2024-02-23T06:34:03;17.20;;;13.47;;
739;SDS011;354;42.694;23.336;2024-02-23T06:36:28;17.10;;;15.30;;
739;SDS011;354;42.694;23.336;2024-02-23T06:38:54;16.40;;;14.63;;
739;SDS011;354;42.694;23.336;2024-02-23T06:41:19;18.63;;;14.07;;
739;SDS011;354;42.694;23.336;2024-02-23T06:43:45;17.87;;;15.03;;
739;SDS011;354;42.694;23.336;2024-02-23T06:46:10;18.80;;;14.80;;
739;SDS011;354;42.694;23.336;2024-02-23T06:48:36;22.07;;;16.93;;
739;SDS011;354;42.694;23.336;2024-02-23T06:51:02;27.20;;;21.43;;
739;SDS011;354;42.694;23.336;2024-02-23T06:53:28;21.80;;;16.30;;
739;SDS011;354;42.694;23.336;2024-02-23T06:55:54;17.87;;;16.07;;
739;SDS011;354;42.694;23.336;2024-02-23T06:58:20;18.40;;;15.03;;
739;SDS011;354;42.694;23.336;2024-02-23T07:00:45;17.23;;;14.53;;
739;SDS011;354;42.694;23.336;2024-02-23T07:03:11;17.57;;;15.30;;
739;SDS011;354;42.694;23.336;2024-02-23T07:05:36;16.80;;;14.47;;
739;SDS011;354;42.694;23.336;2024-02-23T07:08:02;19.63;;;15.53;;
739;SDS011;354;42.694;23.336;2024-02-23T07:10:27;16.57;;;14.57;;
739;SDS011;354;42.694;23.336;2024-02-23T07:12:53;17.63;;;15.20;;
739;SDS011;354;42.694;23.336;2024-02-23T07:15:19;17.30;;;15.50;;
739;SDS011;354;42.694;23.336;2024-02-23T07:17:45;20.07;;;15.43;;
739;SDS011;354;42.694;23.336;2024-02-23T07:20:11;19.40;;;15.57;;
739;SDS011;354;42.694;23.336;2024-02-23T07:22:37;20.43;;;16.70;;
739;SDS011;354;42.694;23.336;2024-02-23T07:25:04;20.97;;;17.60;;
739;SDS011;354;42.694;23.336;2024-02-23T07:27:30;18.43;;;15.83;;
739;SDS011;354;42.694;23.336;2024-02-23T07:29:56;18.37;;;15.50;;
739;SDS011;354;42.694;23.336;2024-02-23T07:32:22;19.83;;;16.20;;
739;SDS011;354;42.694;23.336;2024-02-23T07:34:47;19.87;;;16.50;;
739;SDS011;354;42.694;23.336;2024-02-23T07:37:13;22.07;;;18.03;;
739;SDS011;354;42.694;23.336;2024-02-23T07:39:38;27.13;;;20.83;;
739;SDS011;354;42.694;23.336;2024-02-23T07:42:04;19.73;;;16.47;;
739;SDS011;354;42.694;23.336;2024-02-23T07:44:31;19.77;;;15.50;;
739;SDS011;354;42.694;23.336;2024-02-23T07:46:56;18.03;;;15.30;;
739;SDS011;354;42.694;23.336;2024-02-23T07:49:23;21.90;;;16.97;;
739;SDS011;354;42.694;23.336;2024-02-23T07:51:49;21.13;;;16.07;;
739;SDS011;354;42.694;23.336;2024-02-23T07:54:14;19.20;;;16.53;;
739;SDS011;354;42.694;23.336;2024-02-23T07:56:40;19.73;;;17.67;;
739;SDS011;354;42.694;23.336;2024-02-23T07:59:05;18.70;;;16.53;;
739;SDS011;354;42.694;23.336;2024-02-23T08:01:31;19.17;;;15.47;;
739;SDS011;354;42.694;23.336;2024-02-23T08:03:56;18.63;;;15.80;;
739;SDS011;354;42.694;23.336;2024-02-23T08:06:22;18.13;;;15.83;;
739;SDS011;354;42.694;23.336;2024-02-23T08:08:48;21.20;;;16.47;;
739;SDS011;354;42.694;23.336;2024-02-23T08:11:13;19.93;;;17.87;;
739;SDS011;354;42.694;23.336;2024-02-23T08:13:39;17.57;;;15.33;;
739;SDS011;354;42.694;23.336;2024-02-23T08:16:05;21.30;;;16.13;;
739;SDS011;354;42.694;23.336;2024-02-23T08:18:31;15.87;;;14.27;;
739;SDS011;354;42.694;23.336;2024-02-23T08:20:57;17.00;;;13.47;;
739;SDS011;354;42.694;23.336;2024-02-23T08:23:23;18.67;;;15.40;;
739;SDS011;354;42.694;23.336;2024-02-23T08:25:49;16.60;;;14.43;;
739;SDS011;354;42.694;23.336;2024-02-23T08:28:15;20.17;;;17.93;;
739;SDS011;354;42.694;23.336;2024-02-23T08:30:41;25.17;;;19.97;;
739;SDS011;354;42.694;23.336;2024-02-23T08:33:07;22.87;;;20.27;;
739;SDS011;354;42.694;23.336;2024-02-23T08:35:34;22.07;;;18.87;;
739;SDS011;354;42.694;23.336;2024-02-23T08:38:00;19.63;;;17.33;;
739;SDS011;354;42.694;23.336;2024-02-23T08:40:25;18.87;;;16.87;;
739;SDS011;354;42.694;23.336;2024-02-23T08:42:51;19.77;;;16.83;;
739;SDS011;354;42.694;23.336;2024-02-23T08:45:17;17.43;;;15.30;;
739;SDS011;354;42.694;23.336;2024-02-23T08:47:43;15.57;;;13.70;;
739;SDS011;354;42.694;23.336;2024-02-23T08:50:08;15.20;;;13.13;;
739;SDS011;354;42.694;23.336;2024-02-23T08:52:34;17.20;;;14.37;;
739;SDS011;354;42.694;23.336;2024-02-23T08:54:59;18.67;;;14.77;;
739;SDS011;354;42.694;23.336;2024-02-23T08:57:25;14.87;;;13.37;;
739;SDS011;354;42.694;23.336;2024-02-23T08:59:52;13.97;;;12.63;;
739;SDS011;354;42.694;23.336;2024-02-23T09:02:18;12.97;;;11.53;;
739;SDS011;354;42.694;23.336;2024-02-23T09:04:44;16.93;;;14.03;;
739;SDS011;354;42.694;23.336;2024-02-23T09:07:10;16.23;;;13.07;;
739;SDS011;354;42.694;23.336;2024-02-23T09:09:36;17.73;;;14.90;;
739;SDS011;354;42.694;23.336;2024-02-23T09:12:02;14.73;;;12.60;;
739;SDS011;354;42.694;23.336;2024-02-23T09:14:27;15.67;;;12.63;;
739;SDS011;354;42.694;23.336;2024-02-23T09:16:53;14.20;;;12.10;;
739;SDS011;354;42.694;23.336;2024-02-23T09:19:18;13.80;;;12.03;;
739;SDS011;354;42.694;23.336;2024-02-23T09:21:44;13.17;;;11.83;;
739;SDS011;354;42.694;23.336;2024-02-23T09:24:10;12.13;;;10.93;;
739;SDS011;354;42.694;23.336;2024-02-23T09:26:36;15.83;;;12.27;;
739;SDS011;354;42.694;23.336;2024-02-23T09:29:01;14.20;;;11.17;;
739;SDS011;354;42.694;23.336;2024-02-23T09:31:26;12.63;;;11.40;;
739;SDS011;354;42.694;23.336;2024-02-23T09:33:56;13.07;;;10.20;;
739;SDS011;354;42.694;23.336;2024-02-23T09:36:21;14.60;;;10.87;;
739;SDS011;354;42.694;23.336;2024-02-23T09:38:47;11.07;;;9.97;;
739;SDS011;354;42.694;23.336;2024-02-23T09:41:20;10.13;;;9.33;;
739;SDS011;354;42.694;23.336;2024-02-23T09:43:47;10.27;;;9.37;;
739;SDS011;354;42.694;23.336;2024-02-23T09:46:16;9.60;;;8.60;;
739;SDS011;354;42.694;23.336;2024-02-23T09:48:42;11.00;;;10.03;;
739;SDS011;354;42.694;23.336;2024-02-23T09:51:09;9.97;;;9.17;;
739;SDS011;354;42.694;23.336;2024-02-23T09:53:37;10.17;;;9.27;;
739;SDS011;354;42.694;23.336;2024-02-23T09:56:03;7.17;;;6.67;;
739;SDS011;354;42.694;23.336;2024-02-23T09:58:33;8.17;;;7.47;;
739;SDS011;354;42.694;23.336;2024-02-23T10:01:01;8.00;;;7.37;;
739;SDS011;354;42.694;23.336;2024-02-23T10:03:27;8.13;;;7.53;;
739;SDS011;354;42.694;23.336;2024-02-23T10:05:56;9.27;;;8.33;;
739;SDS011;354;42.694;23.336;2024-02-23T10:08:22;7.50;;;7.00;;
739;SDS011;354;42.694;23.336;2024-02-23T10:10:47;8.43;;;7.73;;
739;SDS011;354;42.694;23.336;2024-02-23T10:13:17;8.67;;;7.43;;
739;SDS011;354;42.694;23.336;2024-02-23T10:15:45;9.30;;;7.30;;
739;SDS011;354;42.694;23.336;2024-02-23T10:18:11;8.13;;;7.43;;
739;SDS011;354;42.694;23.336;2024-02-23T10:20:37;9.27;;;8.47;;
739;SDS011;354;42.694;23.336;2024-02-23T10:23:03;9.53;;;8.60;;
739;SDS011;354;42.694;23.336;2024-02-23T10:25:29;8.07;;;7.27;;
739;SDS011;354;42.694;23.336;2024-02-23T10:27:55;9.47;;;8.67;;
739;SDS011;354;42.694;23.336;2024-02-23T10:30:20;8.93;;;8.23;;
739;SDS011;354;42.694;23.336;2024-02-23T10:32:46;8.07;;;7.40;;
739;SDS011;354;42.694;23.336;2024-02-23T10:35:13;8.53;;;7.83;;
739;SDS011;354;42.694;23.336;2024-02-23T10:37:43;6.93;;;6.27;;
739;SDS011;354;42.694;23.336;2024-02-23T10:40:12;7.73;;;7.13;;
739;SDS011;354;42.694;23.336;2024-02-23T10:42:41;6.37;;;5.87;;
739;SDS011;354;42.694;23.336;2024-02-23T10:45:12;6.20;;;5.70;;
739;SDS011;354;42.694;23.336;2024-02-23T10:47:39;7.57;;;6.87;;
739;SDS011;354;42.694;23.336;2024-02-23T10:50:05;6.43;;;5.83;;
739;SDS011;354;42.694;23.336;2024-02-23T10:52:32;7.43;;;6.83;;
739;SDS011;354;42.694;23.336;2024-02-23T10:54:59;7.23;;;6.57;;
739;SDS011;354;42.694;23.336;2024-02-23T10:57:26;6.77;;;6.27;;
739;SDS011;354;42.694;23.336;2024-02-23T10:59:52;6.60;;;6.10;;
739;SDS011;354;42.694;23.336;2024-02-23T11:02:18;5.93;;;5.43;;
739;SDS011;354;42.694;23.336;2024-02-23T11:04:47;6.03;;;5.50;;
739;SDS011;354;42.694;23.336;2024-02-23T11:07:15;6.13;;;5.83;;
739;SDS011;354;42.694;23.336;2024-02-23T11:09:48;5.73;;;5.33;;
739;SDS011;354;42.694;23.336;2024-02-23T11:12:21;5.23;;;4.83;;
739;SDS011;354;42.694;23.336;2024-02-23T11:14:49;5.90;;;5.40;;
739;SDS011;354;42.694;23.336;2024-02-23T11:17:18;6.17;;;5.77;;
739;SDS011;354;42.694;23.336;2024-02-23T11:19:49;8.33;;;7.53;;
739;SDS011;354;42.694;23.336;2024-02-23T11:22:20;5.80;;;5.40;;
739;SDS011;354;42.694;23.336;2024-02-23T11:24:52;6.83;;;6.23;;
739;SDS011;354;42.694;23.336;2024-02-23T11:27:19;6.37;;;5.83;;
739;SDS011;354;42.694;23.336;2024-02-23T11:29:47;6.03;;;5.53;;
739;SDS011;354;42.694;23.336;2024-02-23T11:32:16;5.10;;;4.80;;
739;SDS011;354;42.694;23.336;2024-02-23T11:34:57;5.30;;;4.90;;
739;SDS011;354;42.694;23.336;2024-02-23T11:37:22;5.77;;;5.37;;
739;SDS011;354;42.694;23.336;2024-02-23T11:39:48;7.70;;;5.83;;
739;SDS011;354;42.694;23.336;2024-02-23T11:42:14;5.20;;;4.80;;
739;SDS011;354;42.694;23.336;2024-02-23T11:44:39;5.70;;;5.30;;
739;SDS011;354;42.694;23.336;2024-02-23T11:47:06;5.83;;;5.30;;
739;SDS011;354;42.694;23.336;2024-02-23T11:49:32;6.30;;;5.80;;
739;SDS011;354;42.694;23.336;2024-02-23T11:51:58;6.07;;;5.67;;
739;SDS011;354;42.694;23.336;2024-02-23T11:54:24;4.97;;;4.57;;
739;SDS011;354;42.694;23.336;2024-02-23T11:56:50;6.67;;;6.00;;
739;SDS011;354;42.694;23.336;2024-02-23T11:59:17;8.87;;;7.10;;
739;SDS011;354;42.694;23.336;2024-02-23T12:01:45;6.93;;;6.43;;
739;SDS011;354;42.694;23.336;2024-02-23T12:04:12;12.73;;;9.20;;
739;SDS011;354;42.694;23.336;2024-02-23T12:06:37;6.77;;;5.40;;
739;SDS011;354;42.694;23.336;2024-02-23T12:09:03;6.27;;;5.87;;
739;SDS011;354;42.694;23.336;2024-02-23T12:11:30;5.93;;;5.43;;
739;SDS011;354;42.694;23.336;2024-02-23T12:13:56;6.70;;;5.87;;
739;SDS011;354;42.694;23.336;2024-02-23T12:16:22;9.17;;;8.20;;
739;SDS011;354;42.694;23.336;2024-02-23T12:18:55;21.07;;;13.87;;
739;SDS011;354;42.694;23.336;2024-02-23T12:21:21;15.30;;;12.67;;
739;SDS011;354;42.694;23.336;2024-02-23T12:23:48;6.87;;;6.17;;
739;SDS011;354;42.694;23.336;2024-02-23T12:26:16;5.60;;;5.20;;
739;SDS011;354;42.694;23.336;2024-02-23T12:28:43;5.87;;;5.27;;
739;SDS011;354;42.694;23.336;2024-02-23T12:31:09;5.73;;;5.33;;
739;SDS011;354;42.694;23.336;2024-02-23T12:33:35;6.20;;;5.70;;
739;SDS011;354;42.694;23.336;2024-02-23T12:36:05;8.73;;;6.73;;
739;SDS011;354;42.694;23.336;2024-02-23T12:38:31;6.73;;;5.70;;
739;SDS011;354;42.694;23.336;2024-02-23T12:40:57;6.10;;;5.70;;
739;SDS011;354;42.694;23.336;2024-02-23T12:43:24;6.87;;;6.40;;
739;SDS011;354;42.694;23.336;2024-02-23T12:45:54;5.43;;;4.93;;
739;SDS011;354;42.694;23.336;2024-02-23T12:48:20;7.00;;;6.33;;
739;SDS011;354;42.694;23.336;2024-02-23T12:50:46;6.03;;;5.53;;
739;SDS011;354;42.694;23.336;2024-02-23T12:53:29;4.83;;;4.50;;
739;SDS011;354;42.694;23.336;2024-02-23T12:56:03;5.17;;;4.87;;
739;SDS011;354;42.694;23.336;2024-02-23T12:58:28;4.47;;;4.17;;
739;SDS011;354;42.694;23.336;2024-02-23T13:00:55;5.37;;;5.07;;
739;SDS011;354;42.694;23.336;2024-02-23T13:03:20;5.40;;;5.10;;
739;SDS011;354;42.694;23.336;2024-02-23T13:05:46;5.13;;;4.73;;
739;SDS011;354;42.694;23.336;2024-02-23T13:08:12;5.17;;;4.77;;
739;SDS011;354;42.694;23.336;2024-02-23T13:10:37;7.00;;;6.43;;
739;SDS011;354;42.694;23.336;2024-02-23T13:13:02;8.60;;;6.00;;
739;SDS011;354;42.694;23.336;2024-02-23T13:15:28;5.83;;;5.43;;
739;SDS011;354;42.694;23.336;2024-02-23T13:17:53;5.53;;;5.10;;
739;SDS011;354;42.694;23.336;2024-02-23T13:20:19;7.50;;;6.80;;
739;SDS011;354;42.694;23.336;2024-02-23T13:22:44;5.00;;;4.70;;
739;SDS011;354;42.694;23.336;2024-02-23T13:25:09;4.97;;;4.63;;
739;SDS011;354;42.694;23.336;2024-02-23T13:27:35;4.63;;;4.30;;
739;SDS011;354;42.694;23.336;2024-02-23T13:30:01;7.00;;;5.80;;
739;SDS011;354;42.694;23.336;2024-02-23T13:32:27;5.37;;;4.93;;
739;SDS011;354;42.694;23.336;2024-02-23T13:34:53;5.40;;;5.00;;
739;SDS011;354;42.694;23.336;2024-02-23T13:37:18;5.47;;;5.07;;
739;SDS011;354;42.694;23.336;2024-02-23T13:39:43;5.83;;;5.43;;
739;SDS011;354;42.694;23.336;2024-02-23T13:42:09;5.30;;;4.90;;
739;SDS011;354;42.694;23.336;2024-02-23T13:44:35;8.30;;;7.53;;
739;SDS011;354;42.694;23.336;2024-02-23T13:47:01;8.63;;;7.30;;
739;SDS011;354;42.694;23.336;2024-02-23T13:49:26;7.67;;;7.07;;
739;SDS011;354;42.694;23.336;2024-02-23T13:51:52;6.20;;;5.60;;
739;SDS011;354;42.694;23.336;2024-02-23T13:54:17;6.57;;;5.93;;
739;SDS011;354;42.694;23.336;2024-02-23T13:56:42;5.70;;;5.33;;
739;SDS011;354;42.694;23.336;2024-02-23T13:59:08;5.80;;;5.50;;
739;SDS011;354;42.694;23.336;2024-02-23T14:01:33;6.17;;;5.63;;
739;SDS011;354;42.694;23.336;2024-02-23T14:03:59;9.97;;;8.97;;
739;SDS011;354;42.694;23.336;2024-02-23T14:06:24;6.07;;;5.57;;
739;SDS011;354;42.694;23.336;2024-02-23T14:08:50;8.20;;;5.77;;
739;SDS011;354;42.694;23.336;2024-02-23T14:11:15;5.83;;;5.33;;
739;SDS011;354;42.694;23.336;2024-02-23T14:13:41;6.83;;;6.37;;
739;SDS011;354;42.694;23.336;2024-02-23T14:16:06;6.67;;;6.17;;
739;SDS011;354;42.694;23.336;2024-02-23T14:18:32;5.93;;;5.53;;
739;SDS011;354;42.694;23.336;2024-02-23T14:21:02;6.03;;;5.53;;
739;SDS011;354;42.694;23.336;2024-02-23T14:23:28;10.87;;;9.77;;
739;SDS011;354;42.694;23.336;2024-02-23T14:25:54;5.83;;;5.43;;
739;SDS011;354;42.694;23.336;2024-02-23T14:28:19;5.93;;;5.50;;
739;SDS011;354;42.694;23.336;2024-02-23T14:30:44;6.37;;;5.97;;
739;SDS011;354;42.694;23.336;2024-02-23T14:33:10;7.13;;;6.53;;
739;SDS011;354;42.694;23.336;2024-02-23T14:35:35;7.30;;;6.20;;
739;SDS011;354;42.694;23.336;2024-02-23T14:38:00;5.90;;;5.50;;
739;SDS011;354;42.694;23.336;2024-02-23T14:40:26;5.60;;;5.27;;
739;SDS011;354;42.694;23.336;2024-02-23T14:42:51;7.17;;;5.47;;
739;SDS011;354;42.694;23.336;2024-02-23T14:45:17;6.47;;;5.97;;
739;SDS011;354;42.694;23.336;2024-02-23T14:47:42;5.90;;;5.50;;
739;SDS011;354;42.694;23.336;2024-02-23T14:50:09;8.10;;;7.50;;
739;SDS011;354;42.694;23.336;2024-02-23T14:52:35;5.40;;;5.10;;
739;SDS011;354;42.694;23.336;2024-02-23T14:55:01;8.00;;;7.40;;
739;SDS011;354;42.694;23.336;2024-02-23T14:57:26;6.13;;;5.73;;
739;SDS011;354;42.694;23.336;2024-02-23T14:59:51;7.00;;;5.60;;
739;SDS011;354;42.694;23.336;2024-02-23T15:02:21;6.33;;;5.73;;
739;SDS011;354;42.694;23.336;2024-02-23T15:04:47;5.80;;;5.40;;